METAR Data
IDs: Format: Raw Decoded Include TAF

Data at: 0835 UTC 27 Feb 2020

METAR for:TKPK (St Kitts/Bradshaw In, --, AT)
Text:TKPK 270300Z 02010KT 9999 SCT020 24/20 Q1017
Temperature: 24.0°C ( 75°F)
Dewpoint: 20.0°C ( 68°F) [RH = 78%]
Pressure (altimeter):30.03 inches Hg (1017.0 mb)
Winds:from the NNE (20 degrees) at 12 MPH (10 knots; 5.1 m/s)
Visibility:6 or more sm (10+ km)
Ceiling:at least 12,000 feet AGL
Clouds: scattered clouds at 2000 feet AGL